createdAt,value
2019-03-08T00:00:08.523Z,99.90
2019-03-08T00:02:37.126Z,99.90
2019-03-08T00:05:06.524Z,99.90
2019-03-08T00:07:35.376Z,99.90
2019-03-08T00:10:04.639Z,99.90
2019-03-08T00:12:33.261Z,99.90
2019-03-08T00:15:01.850Z,99.90
2019-03-08T00:17:30.426Z,99.90
2019-03-08T00:19:59.044Z,99.90
2019-03-08T00:22:27.799Z,99.90
2019-03-08T00:24:56.315Z,99.90
2019-03-08T00:27:24.787Z,99.90
2019-03-08T00:29:53.308Z,99.90
2019-03-08T00:32:21.973Z,99.90
2019-03-08T00:34:50.503Z,99.90
2019-03-08T00:37:19.167Z,99.90
2019-03-08T00:39:47.762Z,99.90
2019-03-08T00:42:16.397Z,99.90
2019-03-08T00:44:45.011Z,99.90
2019-03-08T00:47:13.543Z,99.90
2019-03-08T00:49:42.003Z,99.90
2019-03-08T00:52:10.754Z,99.90
2019-03-08T00:54:39.205Z,99.90
2019-03-08T00:57:07.699Z,99.90
2019-03-08T00:59:36.159Z,99.90
2019-03-08T01:02:04.863Z,99.90
2019-03-08T01:04:33.407Z,99.90
2019-03-08T01:07:02.250Z,99.90
2019-03-08T01:09:30.863Z,99.90
2019-03-08T01:11:59.602Z,99.90
2019-03-08T01:14:28.480Z,99.90
2019-03-08T01:16:57.734Z,99.90
2019-03-08T01:19:26.348Z,99.90
2019-03-08T01:21:55.154Z,99.90
2019-03-08T01:24:23.681Z,99.90
2019-03-08T01:26:52.277Z,99.90
2019-03-08T01:29:20.750Z,99.90
2019-03-08T01:31:49.304Z,99.90
2019-03-08T01:34:17.837Z,99.90
2019-03-08T01:36:46.644Z,99.90
2019-03-08T01:39:15.269Z,99.90
2019-03-08T01:41:43.880Z,99.90
2019-03-08T01:44:12.396Z,99.90
2019-03-08T01:46:40.889Z,99.90
2019-03-08T01:49:09.436Z,99.90
2019-03-08T01:51:37.960Z,99.90
2019-03-08T01:54:06.573Z,99.90
2019-03-08T01:56:35.082Z,99.90
2019-03-08T01:59:03.648Z,99.90
2019-03-08T02:01:32.236Z,99.90
2019-03-08T02:04:00.846Z,99.90
2019-03-08T02:06:29.413Z,99.90
2019-03-08T02:08:58.080Z,99.90
2019-03-08T02:11:26.564Z,99.90
2019-03-08T02:13:55.080Z,99.90
2019-03-08T02:16:23.687Z,99.90
2019-03-08T02:18:52.244Z,99.90
2019-03-08T02:21:20.792Z,99.90
2019-03-08T02:23:49.340Z,99.90
2019-03-08T02:26:17.958Z,99.90
2019-03-08T02:28:46.510Z,99.90
2019-03-08T02:31:15.032Z,99.90
2019-03-08T02:33:43.606Z,99.90
2019-03-08T02:36:12.238Z,99.90
2019-03-08T02:38:40.785Z,99.90
2019-03-08T02:41:09.239Z,99.90
2019-03-08T02:43:37.801Z,99.90
2019-03-08T02:46:06.394Z,99.90
2019-03-08T02:48:35.063Z,99.90
2019-03-08T02:51:03.663Z,99.90
2019-03-08T02:53:32.217Z,99.90
2019-03-08T02:56:00.737Z,99.90
2019-03-08T02:58:29.277Z,99.90
2019-03-08T03:00:57.820Z,99.90
2019-03-08T03:03:26.446Z,99.90
2019-03-08T03:05:55.022Z,99.90
2019-03-08T03:08:23.588Z,99.90
2019-03-08T03:10:52.104Z,99.90
2019-03-08T03:13:20.620Z,99.90
2019-03-08T03:15:49.226Z,99.90
2019-03-08T03:18:17.821Z,99.90
2019-03-08T03:20:46.438Z,99.90
2019-03-08T03:23:14.963Z,99.90
2019-03-08T03:25:43.502Z,99.90
2019-03-08T03:28:12.053Z,99.90
2019-03-08T03:30:40.594Z,99.90
2019-03-08T03:33:09.092Z,99.90
2019-03-08T03:35:37.628Z,99.90
2019-03-08T03:38:06.197Z,99.90
2019-03-08T03:40:34.744Z,99.90
2019-03-08T03:43:03.269Z,99.90
2019-03-08T03:45:31.817Z,99.90
2019-03-08T03:48:00.366Z,99.90
2019-03-08T03:50:28.893Z,99.90
2019-03-08T03:52:57.442Z,99.90
2019-03-08T03:55:26.077Z,99.90
2019-03-08T03:57:54.633Z,99.90
2019-03-08T04:00:23.873Z,99.90
2019-03-08T04:02:52.666Z,99.90
2019-03-08T04:05:21.390Z,99.90
2019-03-08T04:07:49.984Z,99.90
2019-03-08T04:10:18.860Z,99.90
2019-03-08T04:12:47.476Z,99.90
2019-03-08T04:15:19.617Z,99.90
2019-03-08T04:17:48.338Z,99.90
2019-03-08T04:20:18.012Z,99.90
2019-03-08T04:22:46.609Z,99.90
2019-03-08T04:25:15.443Z,99.90
2019-03-08T04:27:44.107Z,99.90
2019-03-08T04:30:17.626Z,99.90
2019-03-08T04:32:46.276Z,99.90
2019-03-08T04:35:14.971Z,99.90
2019-03-08T04:37:43.492Z,99.90
2019-03-08T04:40:13.603Z,99.90
2019-03-08T04:42:42.265Z,99.90
2019-03-08T04:45:12.960Z,99.90
2019-03-08T04:47:41.608Z,99.90
2019-03-08T04:50:13.002Z,99.90
2019-03-08T04:52:41.553Z,99.90
2019-03-08T04:55:16.828Z,99.90
2019-03-08T04:57:45.889Z,99.90
2019-03-08T05:00:16.039Z,99.90
2019-03-08T05:02:44.661Z,99.90
2019-03-08T05:05:13.381Z,99.90
2019-03-08T05:07:42.012Z,99.90
2019-03-08T05:10:13.345Z,99.90
2019-03-08T05:12:42.209Z,99.90
2019-03-08T05:15:11.221Z,99.90
2019-03-08T05:17:39.774Z,99.90
2019-03-08T05:20:10.149Z,99.90
2019-03-08T05:22:38.746Z,99.90
2019-03-08T05:25:09.361Z,99.90
2019-03-08T05:27:37.958Z,99.90
2019-03-08T05:30:12.874Z,99.90
2019-03-08T05:32:41.406Z,99.90
2019-03-08T05:35:10.891Z,99.90
2019-03-08T05:37:39.438Z,99.90
2019-03-08T05:40:13.191Z,99.90
2019-03-08T05:42:41.751Z,99.90
2019-03-08T05:45:11.729Z,99.90
2019-03-08T05:47:40.365Z,99.90
2019-03-08T05:50:13.000Z,99.90
2019-03-08T05:52:41.845Z,99.90
2019-03-08T05:55:11.337Z,99.90
2019-03-08T05:57:39.967Z,99.90
2019-03-08T06:00:15.906Z,99.90
2019-03-08T06:02:44.505Z,99.90
2019-03-08T06:05:13.034Z,99.90
2019-03-08T06:07:41.757Z,99.90
2019-03-08T06:10:28.484Z,99.90
2019-03-08T06:12:57.589Z,99.90
2019-03-08T06:15:27.248Z,99.90
2019-03-08T06:17:56.524Z,99.90
2019-03-08T06:20:25.041Z,99.90
2019-03-08T06:22:53.664Z,99.90
2019-03-08T06:25:22.385Z,99.90
2019-03-08T06:27:50.900Z,99.90
2019-03-08T06:30:19.616Z,99.90
2019-03-08T06:32:48.262Z,99.90
2019-03-08T06:35:16.788Z,99.90
2019-03-08T06:37:45.386Z,99.90
2019-03-08T06:40:14.559Z,99.90
2019-03-08T06:42:43.184Z,99.90
2019-03-08T06:45:16.701Z,99.90
2019-03-08T06:47:45.726Z,99.90
2019-03-08T06:50:16.417Z,99.90
2019-03-08T06:52:45.111Z,99.90
2019-03-08T06:55:14.816Z,99.90
2019-03-08T06:57:43.418Z,99.90
2019-03-08T07:00:32.687Z,99.90
2019-03-08T07:03:01.580Z,99.90
2019-03-08T07:05:30.051Z,99.90
2019-03-08T07:07:58.546Z,99.90
2019-03-08T07:10:27.174Z,99.90
2019-03-08T07:13:02.938Z,99.90
2019-03-08T07:15:25.888Z,99.90
2019-03-08T07:17:54.431Z,99.90
2019-03-08T07:20:27.366Z,99.90
2019-03-08T07:23:12.150Z,99.90
2019-03-08T07:25:58.466Z,99.90
2019-03-08T07:28:28.657Z,99.90
2019-03-08T07:31:31.634Z,99.90
2019-03-08T07:34:20.236Z,99.90
2019-03-08T07:36:50.334Z,99.90
2019-03-08T07:39:37.243Z,99.90
2019-03-08T07:42:10.276Z,99.90
2019-03-08T07:44:56.816Z,99.90
2019-03-08T07:47:26.977Z,99.90
2019-03-08T07:49:57.257Z,99.90
2019-03-08T07:52:33.508Z,99.90
2019-03-08T07:55:09.415Z,99.90
2019-03-08T07:57:56.075Z,99.90
2019-03-08T08:00:42.598Z,99.90
2019-03-08T08:03:12.850Z,99.90
2019-03-08T08:05:45.802Z,99.90
2019-03-08T08:08:33.691Z,99.90
2019-03-08T08:11:12.628Z,99.90
2019-03-08T08:13:54.712Z,99.90
2019-03-08T08:16:27.928Z,99.90
2019-03-08T08:19:03.848Z,99.90
2019-03-08T08:21:46.336Z,99.90
2019-03-08T08:24:19.388Z,99.90
2019-03-08T08:27:07.725Z,99.90
2019-03-08T08:29:46.902Z,99.90
2019-03-08T08:32:26.060Z,99.40
2019-03-08T08:35:12.594Z,99.00
2019-03-08T08:37:59.070Z,99.20
2019-03-08T08:40:31.961Z,98.60
2019-03-08T08:43:02.150Z,98.70
2019-03-08T08:45:41.461Z,97.10
2019-03-08T08:48:20.475Z,98.10
2019-03-08T08:50:56.547Z,97.90
2019-03-08T08:53:26.723Z,98.50
2019-03-08T08:56:02.790Z,98.40
2019-03-08T08:58:38.624Z,98.90
2019-03-08T09:01:14.527Z,99.60
2019-03-08T09:03:44.735Z,98.90
2019-03-08T09:06:24.052Z,99.80
2019-03-08T09:08:56.945Z,99.80
2019-03-08T09:11:30.155Z,99.90
2019-03-08T09:14:03.031Z,99.90
2019-03-08T09:16:36.185Z,99.90
2019-03-08T09:19:22.656Z,99.90
2019-03-08T09:22:08.304Z,99.90
2019-03-08T09:24:55.439Z,99.90
2019-03-08T09:27:28.361Z,99.90
2019-03-08T09:30:10.586Z,99.90
2019-03-08T09:32:59.293Z,99.90
2019-03-08T09:35:30.820Z,99.90
2019-03-08T09:38:03.935Z,99.90
2019-03-08T09:40:51.770Z,99.90
2019-03-08T09:43:22.050Z,99.90
2019-03-08T09:45:58.088Z,99.90
2019-03-08T09:48:28.497Z,99.90
2019-03-08T09:50:58.736Z,99.90
2019-03-08T09:53:34.693Z,99.90
2019-03-08T09:56:08.214Z,99.90
2019-03-08T09:58:39.357Z,99.90
2019-03-08T10:01:16.435Z,99.50
2019-03-08T10:03:46.949Z,98.20
2019-03-08T10:06:31.648Z,98.10
2019-03-08T10:09:04.687Z,96.70
2019-03-08T10:11:43.715Z,96.10
2019-03-08T10:14:13.948Z,96.00
2019-03-08T10:16:44.140Z,94.40
2019-03-08T10:19:17.405Z,94.80
2019-03-08T10:22:05.407Z,94.80
2019-03-08T10:24:35.607Z,94.20
2019-03-08T10:27:14.725Z,94.40
2019-03-08T10:29:57.169Z,95.30
2019-03-08T10:32:36.699Z,95.30
2019-03-08T10:35:07.677Z,95.40
2019-03-08T10:37:49.922Z,95.70
2019-03-08T10:40:20.058Z,96.30
2019-03-08T10:42:50.222Z,96.80
2019-03-08T10:45:38.149Z,96.40
2019-03-08T10:48:08.390Z,95.00
2019-03-08T10:50:38.610Z,95.60
2019-03-08T10:53:11.232Z,95.80
2019-03-08T10:55:53.267Z,96.10
2019-03-08T10:58:25.883Z,95.90
2019-03-08T11:01:14.087Z,96.30
2019-03-08T11:03:47.175Z,96.80
2019-03-08T11:06:17.375Z,97.40
2019-03-08T11:08:50.293Z,98.20
2019-03-08T11:11:36.913Z,99.10
2019-03-08T11:14:19.365Z,98.60
2019-03-08T11:16:49.570Z,99.00
2019-03-08T11:19:22.433Z,99.10
2019-03-08T11:21:52.648Z,98.40
2019-03-08T11:24:31.992Z,98.80
2019-03-08T11:27:17.145Z,99.00
2019-03-08T11:30:03.855Z,99.70
2019-03-08T11:32:43.204Z,99.70
2019-03-08T11:35:16.251Z,99.90
2019-03-08T11:37:49.464Z,99.90
2019-03-08T11:40:20.118Z,99.90
2019-03-08T11:42:53.329Z,99.70
2019-03-08T11:45:32.436Z,99.70
2019-03-08T11:48:19.166Z,99.90
2019-03-08T11:51:07.719Z,99.90
2019-03-08T11:53:40.612Z,99.90
2019-03-08T11:56:28.870Z,99.90
2019-03-08T11:59:15.679Z,99.60
2019-03-08T12:01:45.912Z,99.90
2019-03-08T12:04:18.591Z,99.90
2019-03-08T12:07:04.943Z,99.90
2019-03-08T12:09:37.873Z,99.30
2019-03-08T12:12:24.322Z,99.20
2019-03-08T12:15:10.795Z,98.40
2019-03-08T12:17:40.899Z,97.10
2019-03-08T12:20:18.197Z,95.80
2019-03-08T12:23:06.253Z,96.00
2019-03-08T12:25:40.818Z,95.70
2019-03-08T12:28:17.111Z,95.90
2019-03-08T12:30:48.218Z,95.90
2019-03-08T12:33:21.078Z,95.70
2019-03-08T12:35:51.250Z,96.30
2019-03-08T12:38:27.472Z,96.30
2019-03-08T12:40:57.633Z,96.60
2019-03-08T12:43:45.127Z,95.80
2019-03-08T12:46:15.430Z,95.60
2019-03-08T12:48:50.192Z,96.10
2019-03-08T12:51:23.653Z,96.10
2019-03-08T12:54:09.966Z,96.00
2019-03-08T12:56:54.782Z,96.20
2019-03-08T12:59:40.766Z,96.10
2019-03-08T13:02:10.976Z,94.90
2019-03-08T13:04:57.184Z,95.10
2019-03-08T13:07:28.673Z,94.20
2019-03-08T13:09:59.010Z,94.50
2019-03-08T13:12:27.539Z,93.70
2019-03-08T13:14:56.071Z,93.90
2019-03-08T13:17:24.638Z,93.70
2019-03-08T13:19:53.203Z,93.60
2019-03-08T13:22:21.803Z,92.50
2019-03-08T13:24:50.324Z,91.90
2019-03-08T13:27:18.821Z,92.60
2019-03-08T13:29:47.352Z,92.70
2019-03-08T13:32:15.896Z,93.20
2019-03-08T13:34:44.543Z,94.00
2019-03-08T13:37:13.016Z,94.30
2019-03-08T13:39:41.512Z,94.70
2019-03-08T13:42:09.960Z,94.80
2019-03-08T13:44:38.429Z,93.90
2019-03-08T13:47:07.158Z,94.80
2019-03-08T13:49:35.865Z,94.30
2019-03-08T13:52:04.412Z,94.40
2019-03-08T13:54:32.982Z,94.60
2019-03-08T13:57:01.574Z,94.80
2019-03-08T13:59:30.031Z,94.30
2019-03-08T14:01:58.576Z,95.00
2019-03-08T14:04:27.354Z,95.60
2019-03-08T14:06:55.921Z,95.90
2019-03-08T14:09:24.476Z,96.40
2019-03-08T14:11:52.929Z,96.50
2019-03-08T14:14:21.744Z,97.00
2019-03-08T14:16:50.294Z,97.20
2019-03-08T14:19:18.898Z,98.10
2019-03-08T14:21:47.453Z,98.80
2019-03-08T14:24:16.010Z,99.30
2019-03-08T14:26:44.591Z,99.90
2019-03-08T14:29:13.143Z,99.90
2019-03-08T14:31:49.233Z,99.90
2019-03-08T14:34:17.105Z,99.90
2019-03-08T14:36:46.317Z,99.90
2019-03-08T14:39:14.883Z,99.90
2019-03-08T14:41:45.102Z,99.90
2019-03-08T14:44:15.225Z,99.90
2019-03-08T14:46:57.584Z,99.90
2019-03-08T14:49:26.181Z,99.90
2019-03-08T14:51:55.290Z,99.90
2019-03-08T14:54:24.025Z,99.90
2019-03-08T14:56:52.847Z,99.90
2019-03-08T14:59:21.369Z,99.90
2019-03-08T15:01:49.861Z,99.90
2019-03-08T15:04:18.363Z,99.90
2019-03-08T15:06:46.809Z,99.90
2019-03-08T15:09:15.434Z,99.90
2019-03-08T15:11:43.967Z,99.90
2019-03-08T15:14:12.536Z,99.90
2019-03-08T15:16:41.214Z,99.90
2019-03-08T15:19:09.804Z,99.90
2019-03-08T15:21:48.053Z,99.90
2019-03-08T15:24:08.838Z,99.90
2019-03-08T15:26:37.472Z,99.90
2019-03-08T15:29:06.131Z,99.90
2019-03-08T15:31:34.735Z,99.90
2019-03-08T15:34:03.274Z,99.90
2019-03-08T15:36:31.724Z,99.90
2019-03-08T15:39:00.313Z,99.90
2019-03-08T15:41:28.900Z,99.90
2019-03-08T15:43:57.996Z,99.90
2019-03-08T15:46:26.930Z,99.90
2019-03-08T15:48:55.829Z,99.90
2019-03-08T15:51:25.249Z,99.90
2019-03-08T15:53:54.505Z,99.90
2019-03-08T15:56:23.248Z,99.90
2019-03-08T15:58:51.768Z,99.90
2019-03-08T16:01:20.348Z,99.90
2019-03-08T16:03:48.873Z,99.90
2019-03-08T16:06:19.610Z,99.90
2019-03-08T16:08:47.787Z,99.90
2019-03-08T16:11:16.366Z,99.90
2019-03-08T16:13:44.845Z,99.90
2019-03-08T16:16:13.364Z,99.90
2019-03-08T16:18:43.973Z,99.90
2019-03-08T16:21:13.146Z,99.90
2019-03-08T16:23:41.813Z,99.90
2019-03-08T16:26:10.432Z,99.90
2019-03-08T16:28:38.949Z,99.90
2019-03-08T16:31:17.937Z,99.90
2019-03-08T16:33:50.522Z,99.90
2019-03-08T16:36:35.382Z,99.90
2019-03-08T16:39:07.153Z,99.90
2019-03-08T16:41:46.063Z,99.90
2019-03-08T16:44:31.182Z,99.90
2019-03-08T16:47:08.768Z,99.90
2019-03-08T16:49:56.376Z,99.90
2019-03-08T16:52:29.500Z,99.90
2019-03-08T16:55:02.115Z,99.90
2019-03-08T16:57:32.305Z,99.90
2019-03-08T17:00:11.274Z,99.90
2019-03-08T17:02:41.452Z,99.90
2019-03-08T17:05:27.639Z,99.90
2019-03-08T17:08:00.634Z,99.90
2019-03-08T17:10:36.766Z,99.90
2019-03-08T17:13:07.012Z,99.90
2019-03-08T17:15:46.397Z,99.90
2019-03-08T17:18:32.439Z,99.90
2019-03-08T17:21:09.217Z,99.90
2019-03-08T17:23:45.439Z,99.90
2019-03-08T17:26:18.299Z,99.90
2019-03-08T17:29:06.551Z,99.90
2019-03-08T17:31:45.462Z,99.90
2019-03-08T17:34:30.994Z,99.90
2019-03-08T17:37:01.111Z,99.90
2019-03-08T17:39:33.911Z,99.90
2019-03-08T17:42:06.741Z,99.90
2019-03-08T17:44:39.339Z,99.90
2019-03-08T17:47:21.212Z,99.90
2019-03-08T17:50:03.222Z,99.90
2019-03-08T17:52:49.180Z,99.90
2019-03-08T17:55:27.805Z,99.90
2019-03-08T17:57:58.010Z,99.90
2019-03-08T18:00:30.699Z,99.90
2019-03-08T18:03:00.879Z,99.90
2019-03-08T18:05:33.936Z,99.90
2019-03-08T18:08:04.068Z,99.90
2019-03-08T18:10:43.064Z,99.90
2019-03-08T18:13:16.265Z,99.90
2019-03-08T18:15:52.106Z,99.90
2019-03-08T18:18:38.391Z,99.90
2019-03-08T18:21:20.423Z,99.90
2019-03-08T18:26:51.756Z,99.90
2019-03-08T18:29:27.785Z,99.90
2019-03-08T18:32:00.553Z,99.90
2019-03-08T18:34:39.645Z,99.90
2019-03-08T18:37:18.698Z,99.90
2019-03-08T18:39:57.913Z,99.90
2019-03-08T18:42:30.755Z,99.90
2019-03-08T18:45:00.875Z,99.90
2019-03-08T18:47:30.977Z,99.90
2019-03-08T18:50:01.093Z,99.90
2019-03-08T18:52:47.480Z,99.90
2019-03-08T18:55:20.485Z,99.90
2019-03-08T18:57:56.559Z,99.90
2019-03-08T19:00:26.662Z,99.90
2019-03-08T19:03:12.793Z,99.90
2019-03-08T19:05:45.877Z,99.90
2019-03-08T19:08:16.084Z,99.90
2019-03-08T19:10:49.231Z,99.90
2019-03-08T19:13:22.198Z,99.90
2019-03-08T19:16:08.786Z,99.90
2019-03-08T19:18:50.860Z,99.90
2019-03-08T19:21:32.945Z,99.90
2019-03-08T19:24:15.208Z,99.90
2019-03-08T19:26:48.393Z,99.90
2019-03-08T19:29:33.531Z,99.90
2019-03-08T19:32:04.007Z,99.90
2019-03-08T19:34:37.219Z,99.90
2019-03-08T19:37:19.452Z,99.90
2019-03-08T19:40:01.620Z,99.90
2019-03-08T19:42:31.808Z,99.90
2019-03-08T19:45:17.091Z,99.90
2019-03-08T19:47:52.957Z,99.90
2019-03-08T19:50:25.604Z,99.90
2019-03-08T19:52:58.507Z,99.90
2019-03-08T19:55:43.221Z,99.90
2019-03-08T19:58:13.341Z,99.90
2019-03-08T20:00:43.501Z,99.90
2019-03-08T20:03:17.399Z,99.90
2019-03-08T20:05:47.638Z,99.90
2019-03-08T20:08:26.801Z,99.90
2019-03-08T20:11:05.515Z,99.90
2019-03-08T20:13:51.752Z,99.90
2019-03-08T20:16:21.959Z,99.90
2019-03-08T20:19:08.499Z,99.90
2019-03-08T20:21:41.128Z,99.90
2019-03-08T20:24:16.888Z,99.90
2019-03-08T20:26:47.051Z,99.90
2019-03-08T20:29:20.070Z,99.90
2019-03-08T20:32:06.460Z,99.90
2019-03-08T20:34:39.353Z,99.90
2019-03-08T20:37:25.777Z,99.90
2019-03-08T20:39:59.146Z,99.90
2019-03-08T20:42:38.368Z,99.90
2019-03-08T20:45:19.958Z,99.90
2019-03-08T20:47:48.760Z,99.90
2019-03-08T20:50:17.526Z,99.90
2019-03-08T20:52:46.185Z,99.90
2019-03-08T20:55:14.776Z,99.90
2019-03-08T20:57:43.324Z,99.90
2019-03-08T21:00:15.069Z,99.90
2019-03-08T21:02:43.600Z,99.90
2019-03-08T21:05:12.297Z,99.90
2019-03-08T21:07:40.841Z,99.90
2019-03-08T21:10:14.337Z,99.90
2019-03-08T21:12:43.048Z,99.90
2019-03-08T21:15:13.698Z,99.90
2019-03-08T21:17:42.377Z,99.90
2019-03-08T21:20:12.359Z,99.90
2019-03-08T21:22:40.873Z,99.90
2019-03-08T21:25:14.039Z,99.90
2019-03-08T21:27:42.605Z,99.90
2019-03-08T21:30:19.286Z,99.90
2019-03-08T21:32:48.056Z,99.90
2019-03-08T21:35:16.657Z,99.90
2019-03-08T21:37:45.520Z,99.90
2019-03-08T21:40:14.641Z,99.90
2019-03-08T21:42:43.118Z,99.90
2019-03-08T21:45:13.882Z,99.90
2019-03-08T21:47:42.387Z,99.90
2019-03-08T21:50:17.927Z,99.90
2019-03-08T21:52:46.464Z,99.90
2019-03-08T21:55:15.093Z,99.90
2019-03-08T21:57:43.562Z,99.90
2019-03-08T22:00:23.361Z,99.90
2019-03-08T22:02:51.830Z,99.90
2019-03-08T22:05:34.285Z,99.90
2019-03-08T22:08:02.792Z,99.90
2019-03-08T22:10:36.105Z,99.90
2019-03-08T22:13:04.757Z,99.90
2019-03-08T22:15:33.289Z,99.90
2019-03-08T22:18:01.847Z,99.90
2019-03-08T22:20:30.353Z,99.90
2019-03-08T22:22:58.855Z,99.90
2019-03-08T22:25:27.413Z,99.90
2019-03-08T22:27:55.997Z,99.90
2019-03-08T22:30:24.577Z,99.90
2019-03-08T22:32:53.102Z,99.90
2019-03-08T22:35:21.561Z,99.90
2019-03-08T22:37:50.317Z,99.90
2019-03-08T22:40:18.837Z,99.90
2019-03-08T22:42:47.475Z,99.90
2019-03-08T22:45:16.016Z,99.90
2019-03-08T22:47:44.570Z,99.90
2019-03-08T22:50:14.132Z,99.90
2019-03-08T22:52:42.687Z,99.90
2019-03-08T22:55:13.086Z,99.90
2019-03-08T22:57:41.771Z,99.90
2019-03-08T23:00:26.722Z,99.90
2019-03-08T23:02:55.790Z,99.90
2019-03-08T23:05:24.860Z,99.90
2019-03-08T23:07:53.671Z,99.90
2019-03-08T23:10:22.191Z,99.90
2019-03-08T23:12:50.740Z,99.90
2019-03-08T23:15:19.508Z,99.90
2019-03-08T23:17:47.963Z,99.90
2019-03-08T23:20:16.438Z,99.90
2019-03-08T23:22:44.928Z,99.90
2019-03-08T23:25:13.481Z,99.90
2019-03-08T23:27:43.602Z,99.90
2019-03-08T23:30:13.889Z,99.90
2019-03-08T23:32:43.583Z,99.90
2019-03-08T23:35:12.111Z,99.90
2019-03-08T23:37:40.587Z,99.90
2019-03-08T23:40:09.404Z,99.90
2019-03-08T23:42:37.858Z,99.90
2019-03-08T23:45:08.828Z,99.90
2019-03-08T23:47:37.332Z,99.90
2019-03-08T23:50:08.441Z,99.90
2019-03-08T23:52:36.901Z,99.90
2019-03-08T23:55:08.657Z,99.90
2019-03-08T23:57:37.146Z,99.90
